Overview Statistics Trail Chart Weather Telemetry Raw packets
 

This is the latest recevied weather packets stored in our database for station/object N7IGG. If no packets are shown the sender has not sent any weather packets the latest 10 day(s).

<< 3 4 5 6 7 8 9 >>
Time Temp. Humidity Pressure Rain* Wind** Luminosity Snow
1778172392 11.67° C 85% 1020.9 hPa 0 mm - 50 W/m² -
1778172090 11.67° C 85% 1021 hPa 0 mm - 87 W/m² -
1778171787 11.67° C 85% 1021 hPa 0 mm - 49 W/m² -
1778171484 11.67° C 85% 1021 hPa 0 mm - 75 W/m² -
1778171180 11.67° C 85% 1021.1 hPa 0 mm - 48 W/m² -
1778170877 11.11° C 85% 1021.1 hPa 0 mm - 95 W/m² -
1778170573 11.11° C 85% 1021.1 hPa 0 mm - 55 W/m² -
1778170270 11.11° C 86% 1021.1 hPa 0 mm - 46 W/m² -
1778169966 11.11° C 86% 1021 hPa 0 mm - 48 W/m² -
1778169663 11.11° C 86% 1021.2 hPa 0 mm - 46 W/m² -
1778169357 11.11° C 87% 1021.2 hPa 0 mm - 44 W/m² -
1778169055 11.11° C 87% 1021.3 hPa 0 mm - 44 W/m² -
1778168752 11.11° C 87% 1021.2 hPa 0 mm - 44 W/m² -
1778168449 11.11° C 88% 1021 hPa 0 mm - 198 W/m² -
1778168146 10.56° C 88% 1021.4 hPa 0 mm - 79 W/m² -
1778167842 10.56° C 89% 1021.2 hPa 0 mm - 144 W/m² -
1778167538 10.56° C 89% 1021.3 hPa 0 mm - 55 W/m² -
1778167235 10.56° C 89% 1021.3 hPa 0 mm - 57 W/m² -
1778166930 10.56° C 89% 1021.3 hPa 0 mm - 60 W/m² -
1778166628 10.56° C 89% 1021.1 hPa 0 mm - 61 W/m² -
1778166325 10.56° C 89% 1021.2 hPa 0 mm - 32 W/m² -
1778166021 10.56° C 90% 1021.2 hPa 0 mm - 29 W/m² -
1778165716 10.56° C 90% 1021.1 hPa 0 mm - 31 W/m² -
1778165415 10.56° C 90% 1021.2 hPa 0 mm - 31 W/m² -
1778165111 10.56° C 90% 1021.3 hPa 0 mm - 29 W/m² -

* Rain latest hour (hover to see other rain measurements)
** Current wind speed in m/s (hover to see current wind gust speed)